Latest Weather Observations for Ngukurr AWS

IDD60801

Issued at 10:21 pm CST Friday 15 November 2019 (issued every 10 minutes, with the page automatically refreshed every 10 minutes)

About weather observations | Map of weather stations | Latest weather observations for NT | Other Formats
Station Details ID: 014299 Name: NGUKURR AIRPORT Lat: -14.72 Lon: 134.75 Height: 14.46 m
Data from the previous 72 hours. | See also: Recent months at Ngukurr AWS
Date/Time
CST
Temp
°C
App
Temp
°C
Dew
Point
°C
Rel
Hum
%
Delta-T
°C
Wind Press
QNH
hPa
Press
MSL
hPa
Rain since
9am
mm
Dir  Spd
km/h
Gust
km/h
Spd
kts
Gust
kts
15/10:00pm 26.1 26.9 12.5 42 7.9 CALM 0 0 0 0 1010.4 1010.3 0.0
15/09:30pm 27.4 27.6 11.8 38 9.0 E 2 2 1 1 1010.2 1010.1 0.0
15/09:00pm 29.2 28.9 12.6 36 9.8 ESE 6 7 3 4 1009.9 1009.8 0.0
15/08:30pm 30.4 29.8 12.3 33 10.7 E 7 9 4 5 1009.7 1009.6 0.0
15/08:00pm 31.1 29.6 9.3 26 12.3 E 7 9 4 5 1009.6 1009.5 0.0
15/07:30pm 32.3 30.4 6.5 20 14.0 ENE 6 7 3 4 1009.3 1009.2 0.0
15/07:00pm 33.5 30.5 4.2 16 15.4 ENE 9 11 5 6 1009.0 1008.9 0.0
15/06:30pm 34.8 30.7 2.3 13 16.7 E 13 19 7 10 1008.9 1008.8 0.0
15/06:00pm 35.7 31.0 3.0 13 17.0 E 17 22 9 12 1008.5 1008.4 0.0
15/05:30pm 36.3 31.1 2.4 12 17.6 E 19 26 10 14 1008.2 1008.1 0.0
15/05:00pm 37.1 31.8 1.8 11 18.2 E 19 26 10 14 1008.2 1008.1 0.0
15/04:30pm 37.6 31.4 -0.6 9 19.0 ENE 22 30 12 16 1008.2 1008.1 0.0
15/04:00pm 37.5 31.6 -0.7 9 19.0 ENE 20 33 11 18 1008.3 1008.2 0.0
15/03:30pm 37.8 31.4 1.0 10 18.8 ENE 24 37 13 20 1008.5 1008.4 0.0
15/03:00pm 38.9 33.4 1.8 10 19.3 E 20 33 11 18 1008.6 1008.5 0.0
15/02:30pm 39.3 33.3 -2.8 7 20.5 E 19 32 10 17 1008.8 1008.7 0.0
15/02:00pm 38.2 31.2 -3.6 7 19.9 E 24 35 13 19 1009.0 1008.9 0.0
15/01:30pm 38.9 32.1 -5.1 6 20.6 E 22 37 12 20 1009.4 1009.3 0.0
15/01:00pm 38.6 31.4 -5.3 6 20.4 E 24 37 13 20 1009.7 1009.6 0.0
15/12:30pm 38.9 31.9 -7.5 5 20.9 ESE 22 33 12 18 1010.1 1010.0 0.0
15/12:00pm 38.6 32.5 -7.7 5 20.8 E 17 28 9 15 1010.5 1010.4 0.0
15/11:30am 38.9 32.8 -7.5 5 20.9 ESE 17 28 9 15 1011.0 1010.9 0.0
15/11:00am 37.4 32.0 -4.2 7 19.5 ESE 15 26 8 14 1011.4 1011.3 0.0
15/10:30am 37.0 31.0 -2.7 8 19.0 ESE 19 26 10 14 1011.6 1011.5 0.0
15/10:00am 35.8 30.5 -0.5 10 17.9 ESE 17 30 9 16 1011.7 1011.6 0.0
15/09:30am 34.8 31.3 7.0 18 15.3 ESE 15 26 8 14 1011.9 1011.8 0.0
15/09:00am 33.2 33.3 13.8 31 11.8 E 6 11 3 6 1012.0 1011.9 0.0
15/08:30am 31.1 32.0 16.7 42 9.1 E 7 11 4 6 1012.1 1012.0 0.0
15/08:00am 29.2 31.4 19.2 54 6.5 ESE 6 9 3 5 1012.0 1011.9 0.0
15/07:30am 26.7 30.0 20.8 70 3.9 E 4 6 2 3 1011.8 1011.7 0.0
15/07:00am 25.0 29.3 21.1 79 2.6 CALM 0 0 0 0 1011.3 1011.2 0.0
15/06:30am 22.4 25.7 19.2 82 2.0 CALM 0 0 0 0 1010.8 1010.7 0.0
15/06:00am 21.3 24.1 17.9 81 2.1 CALM 0 0 0 0 1010.2 1010.1 0.0
15/05:30am 21.2 23.7 17.2 78 2.5 CALM 0 0 0 0 1009.8 1009.7 0.0
15/05:00am 21.8 24.6 18.0 79 2.4 CALM 0 0 0 0 1009.6 1009.5 0.0
15/04:30am 21.6 23.9 17.8 79 2.4 S 2 4 1 2 1009.4 1009.3 0.0
15/04:00am 21.7 24.1 16.9 74 2.9 CALM 0 2 0 1 1009.2 1009.1 0.0
15/03:30am 22.1 24.5 18.7 81 2.1 S 4 4 2 2 1008.9 1008.8 0.0
15/03:00am 23.0 26.1 19.4 80 2.3 SSE 2 2 1 1 1009.0 1008.9 0.0
15/02:30am 23.2 26.4 19.8 81 2.2 SSE 2 6 1 3 1008.8 1008.7 0.0
15/02:00am 23.2 26.6 19.4 79 2.4 CALM 0 0 0 0 1008.9 1008.8 0.0
15/01:30am 23.5 26.8 19.2 77 2.7 CALM 0 0 0 0 1009.0 1008.9 0.0
15/01:00am 23.9 26.8 18.1 70 3.6 CALM 0 0 0 0 1009.3 1009.2 0.0
15/12:30am 24.8 26.8 17.0 62 4.8 SE 2 2 1 1 1009.6 1009.5 0.0
15/12:00am 25.3 27.3 18.7 67 4.2 SE 6 6 3 3 1009.9 1009.8 0.0
 
Date/Time
CST
Temp
°C
App
Temp
°C
Dew
Point
°C
Rel
Hum
%
Delta-T
°C
Wind Press
QNH
hPa
Press
MSL
hPa
Rain since
9am
mm
Dir  Spd
km/h
Gust
km/h
Spd
kts
Gust
kts
14/11:30pm 26.0 27.8 18.4 63 4.8 SE 6 7 3 4 1010.1 1010.0 0.0
14/11:00pm 26.2 27.2 16.4 54 6.0 SE 6 6 3 3 1010.2 1010.1 0.0
14/10:30pm 26.8 27.1 13.5 44 7.9 SE 4 6 2 3 1010.1 1010.0 0.0
14/10:00pm 27.2 26.6 10.4 35 9.4 SE 4 6 2 3 1010.0 1009.9 0.0
14/09:30pm 29.4 28.8 10.5 31 10.8 ENE 4 6 2 3 1009.6 1009.5 0.0
14/09:00pm 30.4 29.6 10.9 30 11.2 ENE 6 7 3 4 1009.3 1009.2 0.0
14/08:30pm 30.9 30.0 10.8 29 11.6 ENE 6 7 3 4 1009.1 1009.0 0.0
14/08:00pm 31.8 30.9 10.5 27 12.2 ENE 6 9 3 5 1008.9 1008.8 0.0
14/07:30pm 32.4 30.5 10.4 26 12.7 ENE 11 15 6 8 1008.6 1008.5 0.0
14/07:00pm 33.1 30.8 10.4 25 13.1 ENE 13 19 7 10 1008.4 1008.3 0.0
14/06:30pm 33.9 30.1 9.2 22 14.1 E 19 24 10 13 1008.3 1008.2 0.0
14/06:00pm 34.9 31.0 8.6 20 14.9 ENE 19 28 10 15 1008.1 1008.0 0.0
14/05:30pm 35.7 31.2 6.9 17 16.0 ENE 20 32 11 17 1007.9 1007.8 0.0
14/05:00pm 36.4 31.8 8.3 18 15.9 ENE 22 32 12 17 1007.8 1007.7 0.0
14/04:30pm 37.4 32.2 5.4 14 17.5 E 22 32 12 17 1007.8 1007.7 0.0
14/04:00pm 38.7 32.5 4.2 12 18.6 E 26 41 14 22 1008.1 1008.0 0.0
14/03:30pm 38.1 32.2 6.0 14 17.8 E 26 39 14 21 1008.4 1008.3 0.0
14/03:00pm 39.0 33.9 7.7 15 17.8 E 24 39 13 21 1008.6 1008.5 0.0
14/02:30pm 39.4 34.6 8.9 16 17.7 ESE 24 35 13 19 1008.7 1008.6 0.0
14/02:00pm 40.1 37.0 12.1 19 17.0 ESE 20 35 11 19 1008.8 1008.7 0.0
14/01:30pm 39.5 36.0 7.1 14 18.3 ESE 15 30 8 16 1009.2 1009.1 0.0
14/01:00pm 39.7 37.3 10.1 17 17.5 SE 13 24 7 13 1009.8 1009.7 0.0
14/12:30pm 38.9 36.9 12.6 21 16.1 ESE 15 30 8 16 1010.4 1010.3 0.0
14/12:00pm 37.9 36.1 14.5 25 14.6 SE 17 26 9 14 1011.0 1010.9 0.0
14/11:30am 37.7 37.0 15.5 27 14.1 SE 13 19 7 10 1011.5 1011.4 0.0
14/11:00am 36.3 36.0 15.4 28 13.1 E 11 19 6 10 1011.8 1011.7 0.0
14/10:30am 36.4 35.7 15.5 29 13.2 SE 13 24 7 13 1012.2 1012.1 0.0
14/10:00am 35.5 34.2 15.8 31 12.4 ESE 17 32 9 17 1012.6 1012.5 0.0
14/09:30am 34.1 36.4 19.4 42 9.7 S 6 13 3 7 1012.9 1012.8 0.0
14/09:00am 32.2 35.5 20.8 51 7.6 SSW 4 13 2 7 1013.1 1013.0 0.0
14/08:30am 30.7 33.8 21.5 58 6.2 ESE 7 11 4 6 1013.1 1013.0 0.0
14/08:00am 29.7 33.6 22.9 67 4.6 ESE 7 11 4 6 1013.2 1013.1 0.0
14/07:30am 28.6 32.2 23.1 72 3.8 ESE 9 15 5 8 1013.0 1012.9 0.0
14/07:00am 27.2 31.0 22.8 77 3.0 SE 7 11 4 6 1012.7 1012.6 0.0
14/06:30am 26.4 30.6 23.1 82 2.2 SSE 6 7 3 4 1012.0 1011.9 0.0
14/06:00am 25.5 29.4 22.6 84 2.0 S 6 6 3 3 1011.5 1011.4 0.0
14/05:30am 25.3 29.5 21.8 81 2.3 SSW 2 4 1 2 1010.9 1010.8 0.0
14/05:00am 25.5 30.1 21.8 80 2.5 CALM 0 0 0 0 1010.6 1010.5 0.0
14/04:30am 26.0 30.3 21.9 78 2.7 SW 2 2 1 1 1010.3 1010.2 0.0
14/04:00am 26.1 30.7 21.7 77 2.9 CALM 0 2 0 1 1010.1 1010.0 0.0
14/03:30am 26.2 30.2 21.4 75 3.2 SSE 2 2 1 1 1009.8 1009.7 0.0
14/03:00am 26.7 30.9 21.0 71 3.8 CALM 0 0 0 0 1009.8 1009.7 0.0
14/02:30am 28.0 32.8 22.2 70 3.9 CALM 0 2 0 1 1009.9 1009.8 0.0
14/02:00am 28.4 32.5 22.2 69 4.2 NNE 4 7 2 4 1010.0 1009.9 0.0
14/01:30am 28.8 32.4 22.1 67 4.5 NNE 6 9 3 5 1010.1 1010.0 0.0
14/01:00am 29.2 33.1 21.9 64 4.9 NE 4 6 2 3 1010.2 1010.1 0.0
14/12:30am 29.6 33.1 21.8 63 5.3 NE 6 9 3 5 1010.4 1010.3 0.0
14/12:00am 30.0 33.1 21.4 60 5.8 ENE 7 11 4 6 1010.6 1010.5 0.0
 
Date/Time
CST
Temp
°C
App
Temp
°C
Dew
Point
°C
Rel
Hum
%
Delta-T
°C
Wind Press
QNH
hPa
Press
MSL
hPa
Rain since
9am
mm
Dir  Spd
km/h
Gust
km/h
Spd
kts
Gust
kts
13/11:30pm 30.3 33.2 21.1 58 6.2 NE 7 13 4 7 1010.8 1010.7 0.0
13/11:00pm 30.5 33.2 20.7 55 6.5 NE 7 11 4 6 1010.9 1010.8 0.0
13/10:30pm 30.9 33.4 20.2 53 7.1 NE 7 9 4 5 1011.1 1011.0 0.0
13/10:00pm 31.1 33.2 20.1 52 7.3 NE 9 15 5 8 1010.9 1010.8 0.0
13/09:30pm 31.5 32.4 19.2 48 8.0 NE 13 17 7 9 1010.6 1010.5 0.0
13/09:00pm 32.0 32.5 17.5 42 9.3 NE 11 15 6 8 1010.4 1010.3 0.0
13/08:30pm 32.6 32.7 16.4 37 10.2 ENE 11 15 6 8 1010.3 1010.2 0.0
13/08:00pm 33.4 32.1 14.9 32 11.4 ENE 15 20 8 11 1009.8 1009.7 0.0
13/07:30pm 34.4 32.4 13.8 29 12.6 ENE 17 24 9 13 1009.5 1009.4 0.0
13/07:00pm 35.6 33.2 9.9 21 14.9 ENE 13 20 7 11 1009.0 1008.9 0.0
13/06:30pm 36.4 33.4 9.1 19 15.7 E 15 24 8 13 1008.7 1008.6 0.0
13/06:00pm 37.5 33.5 6.5 15 17.2 ENE 17 22 9 12 1008.2 1008.1 0.0
13/05:30pm 38.2 33.5 5.0 13 18.1 ENE 19 30 10 16 1008.0 1007.9 0.0
13/05:00pm 39.4 34.4 3.5 11 19.2 E 19 24 10 13 1007.7 1007.6 0.0
13/04:30pm 39.8 36.0 9.2 16 17.9 ESE 19 32 10 17 1007.7 1007.6 0.0
13/04:00pm 40.0 35.8 11.2 18 17.3 ESE 24 37 13 20 1007.8 1007.7 0.0
13/03:30pm 40.8 37.8 5.8 12 19.6 SE 11 24 6 13 1008.0 1007.9 0.0
13/03:00pm 40.9 36.8 4.6 11 19.9 ESE 15 37 8 20 1008.3 1008.2 0.0
13/02:30pm 40.5 37.1 7.8 14 18.8 E 15 30 8 16 1008.7 1008.6 0.0
13/02:00pm 40.4 38.5 10.6 17 17.8 ENE 11 24 6 13 1008.8 1008.7 0.0
13/01:30pm 39.1 38.4 12.0 20 16.4 E 7 15 4 8 1009.2 1009.1 0.0
13/01:00pm 39.7 37.4 11.7 19 16.9 E 15 30 8 16 1009.9 1009.8 0.0
13/12:30pm 38.0 36.5 11.9 21 15.7 NE 11 28 6 15 1010.6 1010.5 0.0
13/12:00pm 37.7 37.9 13.0 23 15.1 NNE 4 20 2 11 1011.1 1011.0 0.0
13/11:30am 38.3 38.1 14.8 25 14.8 ENE 9 17 5 9 1011.8 1011.7 0.0
13/11:00am 36.6 36.8 14.6 27 13.7 N 7 17 4 9 1012.3 1012.2 0.0
13/10:30am 35.4 36.3 16.2 32 12.2 NE 6 11 3 6 1012.5 1012.4 0.0
13/10:00am 35.3 36.8 18.0 36 11.2 W 7 15 4 8 1012.8 1012.7 0.0
13/09:30am 33.8 36.3 19.1 42 9.7 NNW 4 11 2 6 1013.1 1013.0 0.0
13/09:00am 32.4 34.6 19.6 46 8.4 NNW 7 13 4 7 1013.0 1012.9 0.0
13/08:30am 31.5 33.7 20.4 51 7.4 NNW 9 19 5 10 1013.0 1012.9 0.0
13/08:00am 30.3 31.6 20.2 54 6.7 NW 13 19 7 10 1013.1 1013.0 0.0
13/07:30am 29.3 30.9 20.7 59 5.7 NNW 13 20 7 11 1012.9 1012.8 0.0
13/07:00am 27.7 30.8 21.0 67 4.4 NNW 6 7 3 4 1012.7 1012.6 0.0
13/06:30am 25.5 29.6 20.7 75 3.1 CALM 0 0 0 0 1012.4 1012.3 0.0
13/06:00am 23.9 27.4 19.6 77 2.8 CALM 0 0 0 0 1012.1 1012.0 0.0
13/05:30am 25.2 28.8 20.5 75 3.1 N 2 4 1 2 1011.7 1011.6 0.0
13/05:00am 25.1 28.8 20.8 77 2.8 N 2 6 1 3 1011.4 1011.3 0.0
13/04:30am 25.3 29.3 20.5 75 3.1 CALM 0 0 0 0 1011.3 1011.2 0.0
13/04:00am 25.8 29.4 20.6 73 3.4 NNW 2 4 1 2 1011.1 1011.0 0.0
13/03:30am 26.3 29.4 21.1 73 3.4 N 6 7 3 4 1011.0 1010.9 0.0
13/03:00am 26.5 29.7 21.3 73 3.5 NNE 6 9 3 5 1011.2 1011.1 0.0
13/02:30am 26.6 29.7 21.1 72 3.6 NNE 6 7 3 4 1011.2 1011.1 0.0
13/02:00am 26.9 30.1 21.2 71 3.8 NNE 6 9 3 5 1011.4 1011.3 0.0
13/01:30am 27.4 30.0 21.2 69 4.1 NNE 9 15 5 8 1011.6 1011.5 0.0
13/01:00am 27.7 30.5 21.5 69 4.1 NNE 9 15 5 8 1011.9 1011.8 0.0
13/12:30am 27.9 30.5 20.5 64 4.9 NNE 7 11 4 6 1012.1 1012.0 0.0
13/12:00am 28.4 29.7 20.2 61 5.4 NE 13 20 7 11 1012.1 1012.0 0.0
 
Date/Time
CST
Temp
°C
App
Temp
°C
Dew
Point
°C
Rel
Hum
%
Delta-T
°C
Wind Press
QNH
hPa
Press
MSL
hPa
Rain since
9am
mm
Dir  Spd
km/h
Gust
km/h
Spd
kts
Gust
kts
12/11:30pm 28.9 29.8 19.2 55 6.3 NE 13 20 7 11 1012.1 1012.0 0.0
12/11:00pm 29.1 30.3 18.2 51 7.0 ENE 9 15 5 8 1012.2 1012.1 0.0
12/10:30pm 29.6 30.0 18.1 50 7.4 ENE 13 19 7 10 1012.1 1012.0 0.0

Other formats

Comma delimited format used in spreadsheet applications
http://www.bom.gov.au/fwo/IDD60801/IDD60801.94106.axf

JavaScript Object Notation format (JSON) in row-major order
http://www.bom.gov.au/fwo/IDD60801/IDD60801.94106.json

Data quality

Most of these data are generated automatically and are frequently updated. Quality checks on data are not normally performed. It is possible for incorrect values to appear. Refer to information at About Latest Weather Observations and please check the disclaimer before using these data.